Time;durP1;ratioP1;P1;durP2;ratioP2;P2;SDS_P1;SDS_P2;PMS_P1;PMS_P2;Temp;Humidity;BMP_temperature;BMP_pressure;BME280_temperature;BME280_humidity;BME280_pressure;Samples;Min_cycle;Max_cycle;Signal;HPM_P1;HPM_P2
2022/10/02 00:06:43;;;;;;;4;7.2;;;;;;;11.3;87.2;98240;;;;
2022/10/02 00:17:43;;;;;;;4;7.2;;;;;;;11.4;87.3;98250;;;;
2022/10/02 00:28:43;;;;;;;4;7.2;;;;;;;11.4;87.2;98260;;;;
2022/10/02 00:38:43;;;;;;;3.6;6.3;;;;;;;11.5;86.9;98260;;;;
2022/10/02 00:48:43;;;;;;;3.6;6.3;;;;;;;11.6;86.6;98270;;;;
2022/10/02 00:59:43;;;;;;;3.6;6.3;;;;;;;11.6;86.4;98270;;;;
2022/10/02 01:09:43;;;;;;;4.1;7.5;;;;;;;11.7;86.1;98290;;;;
2022/10/02 01:19:43;;;;;;;4.1;7.5;;;;;;;11.7;86.1;98290;;;;
2022/10/02 01:30:43;;;;;;;4.1;7.5;;;;;;;11.8;85.8;98300;;;;
2022/10/02 01:41:43;;;;;;;5.2;6.9;;;;;;;11.8;85.2;98310;;;;
2022/10/02 01:51:43;;;;;;;5.2;6.9;;;;;;;11.8;86.5;98330;;;;
2022/10/02 02:02:43;;;;;;;5.2;6.9;;;;;;;11.7;87.6;98340;;;;
2022/10/02 02:12:43;;;;;;;2.7;4.4;;;;;;;11.7;87.9;98340;;;;
2022/10/02 02:23:43;;;;;;;2.7;4.4;;;;;;;11.7;88.3;98350;;;;
2022/10/02 02:33:43;;;;;;;2.7;4.4;;;;;;;11.7;88.3;98350;;;;
2022/10/02 02:43:43;;;;;;;7.3;12.3;;;;;;;11.7;88.4;98360;;;;
2022/10/02 02:53:43;;;;;;;7.3;12.3;;;;;;;11.6;88.4;98370;;;;
2022/10/02 03:04:43;;;;;;;7.3;12.3;;;;;;;11.7;88.2;98390;;;;
2022/10/02 03:14:43;;;;;;;3.8;5.8;;;;;;;11.7;88.1;98390;;;;
2022/10/02 03:24:43;;;;;;;3.8;5.8;;;;;;;11.7;87.7;98390;;;;
2022/10/02 03:35:43;;;;;;;3.8;5.8;;;;;;;11.7;87.6;98400;;;;
2022/10/02 03:45:43;;;;;;;3;5.2;;;;;;;11.7;87.2;98410;;;;
2022/10/02 03:56:43;;;;;;;3;5.2;;;;;;;11.8;86.7;98420;;;;
2022/10/02 04:06:43;;;;;;;3.2;7.9;;;;;;;11.8;86.4;98430;;;;
2022/10/02 04:17:43;;;;;;;3.2;7.9;;;;;;;11.8;85.9;98430;;;;
2022/10/02 04:27:43;;;;;;;3.2;7.9;;;;;;;11.9;85.2;98450;;;;
2022/10/02 04:37:43;;;;;;;2.8;5.5;;;;;;;12;84.3;98460;;;;
2022/10/02 04:48:43;;;;;;;2.8;5.5;;;;;;;12;84.1;98480;;;;
2022/10/02 04:58:45;;;;;;;2.8;5.5;;;;;;;12;83.5;98490;;;;
2022/10/02 05:09:43;;;;;;;2.9;9.3;;;;;;;12.2;83.3;98500;;;;
2022/10/02 05:20:43;;;;;;;2.9;9.3;;;;;;;12.2;82.6;98510;;;;
2022/10/02 05:31:43;;;;;;;2.9;9.3;;;;;;;12.2;82.1;98520;;;;
2022/10/02 05:41:43;;;;;;;2.2;5.1;;;;;;;12.3;82.2;98540;;;;
2022/10/02 05:52:43;;;;;;;2.2;5.1;;;;;;;12.4;81.9;98560;;;;
2022/10/02 06:03:43;;;;;;;2.2;5.1;;;;;;;12.5;81.5;98560;;;;
2022/10/02 06:14:43;;;;;;;2.6;4.3;;;;;;;12.5;81.3;98580;;;;
2022/10/02 06:25:43;;;;;;;2.6;4.3;;;;;;;12.5;81;98590;;;;
2022/10/02 06:35:43;;;;;;;2.6;4.3;;;;;;;12.8;80.8;98600;;;;
2022/10/02 06:46:43;;;;;;;2.7;7;;;;;;;13;79.9;98610;;;;
2022/10/02 06:57:44;;;;;;;2.7;7;;;;;;;13.2;79.1;98620;;;;
2022/10/02 07:07:43;;;;;;;2.6;5.3;;;;;;;13.3;78.9;98630;;;;
2022/10/02 07:17:43;;;;;;;2.6;5.3;;;;;;;13.4;78.3;98630;;;;
2022/10/02 07:27:43;;;;;;;2.6;5.3;;;;;;;13.7;77.6;98630;;;;
2022/10/02 07:37:43;;;;;;;3;7.7;;;;;;;13.7;77;98640;;;;
2022/10/02 07:48:43;;;;;;;3;7.7;;;;;;;13.9;76;98640;;;;
2022/10/02 07:58:43;;;;;;;3;7.7;;;;;;;14.1;75.3;98630;;;;
2022/10/02 08:08:43;;;;;;;2.6;5.7;;;;;;;14;74.9;98630;;;;
2022/10/02 08:18:43;;;;;;;2.6;5.7;;;;;;;14.2;74.2;98630;;;;
2022/10/02 08:29:43;;;;;;;2.6;5.7;;;;;;;14.3;73.6;98630;;;;
2022/10/02 08:39:43;;;;;;;2.5;4.9;;;;;;;14.3;72.4;98620;;;;
2022/10/02 08:49:43;;;;;;;2.5;4.9;;;;;;;15;71.8;98600;;;;
2022/10/02 08:59:43;;;;;;;2.5;4.9;;;;;;;15.2;70.4;98590;;;;
2022/10/02 09:10:44;;;;;;;2.7;4.9;;;;;;;15.1;69.6;98600;;;;
2022/10/02 09:20:43;;;;;;;2.7;4.9;;;;;;;15.2;68.7;98590;;;;
2022/10/02 09:31:43;;;;;;;2.7;4.9;;;;;;;15.6;66.1;98580;;;;
2022/10/02 09:41:46;;;;;;;2.7;5.9;;;;;;;15.3;66;98590;;;;
2022/10/02 09:52:44;;;;;;;2.7;5.9;;;;;;;15;67.4;98580;;;;
2022/10/02 10:02:43;;;;;;;2.7;5.9;;;;;;;15.2;67.6;98570;;;;
2022/10/02 10:12:45;;;;;;;2.8;5.8;;;;;;;15.2;68;98560;;;;
2022/10/02 10:22:43;;;;;;;2.8;5.8;;;;;;;15.5;67;98560;;;;
2022/10/02 10:33:43;;;;;;;2.8;5.8;;;;;;;15.6;65.6;98570;;;;
2022/10/02 10:43:43;;;;;;;3;6.5;;;;;;;16.2;63.8;98550;;;;
2022/10/02 10:54:43;;;;;;;3;6.5;;;;;;;15.9;62.4;98560;;;;
2022/10/02 11:05:43;;;;;;;3;6.5;;;;;;;16;61.4;98540;;;;
2022/10/02 11:15:43;;;;;;;2.8;8.4;;;;;;;16.5;62.2;98540;;;;
2022/10/02 11:25:43;;;;;;;2.8;8.4;;;;;;;16.6;62.1;98530;;;;
2022/10/02 11:36:43;;;;;;;2.1;4.5;;;;;;;16.9;62;98530;;;;
2022/10/02 11:46:43;;;;;;;2.1;4.5;;;;;;;16.9;61.5;98520;;;;
2022/10/02 11:57:44;;;;;;;2.1;4.5;;;;;;;16.7;61.6;98510;;;;
2022/10/02 12:07:43;;;;;;;2.6;10.3;;;;;;;16.6;61.9;98510;;;;
2022/10/02 12:18:43;;;;;;;2.6;10.3;;;;;;;16.1;66.3;98510;;;;
2022/10/02 12:28:43;;;;;;;2.6;10.3;;;;;;;16.1;66;98500;;;;
2022/10/02 12:39:43;;;;;;;2.4;5.9;;;;;;;15.3;72.2;98490;;;;
2022/10/02 12:49:44;;;;;;;2.4;5.9;;;;;;;15.7;70.2;98480;;;;
2022/10/02 13:00:43;;;;;;;2.4;5.9;;;;;;;16.5;66.4;98450;;;;
2022/10/02 13:10:44;;;;;;;3.3;7.9;;;;;;;17.2;62.6;98450;;;;
2022/10/02 13:21:45;;;;;;;3.3;7.9;;;;;;;17.1;59.1;98440;;;;
2022/10/02 13:32:43;;;;;;;3.3;7.9;;;;;;;16.8;59;98430;;;;
2022/10/02 13:43:43;;;;;;;2.7;5.3;;;;;;;17.2;59.1;98420;;;;
2022/10/02 13:54:48;;;;;;;2.7;5.3;;;;;;;17.3;60.6;98410;;;;
2022/10/02 14:05:43;;;;;;;3.7;5.3;;;;;;;17;60.3;98400;;;;
2022/10/02 14:16:43;;;;;;;3.7;8.3;;;;;;;17;61.9;98410;;;;
2022/10/02 14:26:43;;;;;;;3.7;8.3;;;;;;;17;62.1;98410;;;;
2022/10/02 14:37:43;;;;;;;3.5;7.3;;;;;;;16.9;63.5;98390;;;;
2022/10/02 14:47:43;;;;;;;3.5;7.3;;;;;;;16.7;62.9;98380;;;;
2022/10/02 14:58:43;;;;;;;3.5;7.3;;;;;;;16.4;63.2;98380;;;;
2022/10/02 15:09:43;;;;;;;3.5;9.6;;;;;;;16.4;63.9;98380;;;;
2022/10/02 15:20:43;;;;;;;3.5;9.6;;;;;;;15.8;65.6;98380;;;;
2022/10/02 15:31:43;;;;;;;3.5;9.6;;;;;;;15.5;66.8;98380;;;;
2022/10/02 15:41:43;;;;;;;4.6;8.4;;;;;;;15.2;67.8;98380;;;;
2022/10/02 15:52:47;;;;;;;4.6;8.4;;;;;;;14.9;68.4;98390;;;;
2022/10/02 16:04:47;;;;;;;4.6;8.4;;;;;;;14.8;69.2;98380;;;;
2022/10/02 16:14:43;;;;;;;4.6;8.5;;;;;;;14.6;69.2;98390;;;;
2022/10/02 16:25:43;;;;;;;4.6;8.5;;;;;;;14.5;69.4;98390;;;;
2022/10/02 16:35:43;;;;;;;;;;;;;;;;;;;;;
2022/10/02 16:46:43;;;;;;;7.3;10.9;;;;;;;13.2;83.5;98450;;;;
2022/10/02 16:56:43;;;;;;;7.3;10.9;;;;;;;12.7;87.8;98440;;;;
2022/10/02 17:06:43;;;;;;;4.9;8.1;;;;;;;12.5;89.9;98430;;;;
2022/10/02 17:17:43;;;;;;;4.9;8.1;;;;;;;12.3;90.5;98440;;;;
2022/10/02 17:28:43;;;;;;;4.9;8.1;;;;;;;12.4;91.8;98440;;;;
2022/10/02 17:38:43;;;;;;;10.1;13.8;;;;;;;12.4;92.1;98400;;;;
2022/10/02 17:48:43;;;;;;;10.1;13.8;;;;;;;12.4;92.1;98390;;;;
2022/10/02 17:59:44;;;;;;;10.1;13.8;;;;;;;12.1;91.5;98380;;;;
2022/10/02 18:09:43;;;;;;;8.7;15.6;;;;;;;11.9;91.3;98380;;;;
2022/10/02 18:19:43;;;;;;;8.7;15.6;;;;;;;11.9;91.4;98380;;;;
2022/10/02 18:30:44;;;;;;;8.7;15.6;;;;;;;11.8;91.5;98370;;;;
2022/10/02 18:40:43;;;;;;;5.1;8.6;;;;;;;11.8;92.1;98380;;;;
2022/10/02 18:50:44;;;;;;;5.1;8.6;;;;;;;11.5;91.8;98380;;;;
2022/10/02 19:00:43;;;;;;;5.1;8.6;;;;;;;11.5;91;98370;;;;
2022/10/02 19:10:45;;;;;;;5.7;15;;;;;;;11.5;90.6;98370;;;;
2022/10/02 19:20:43;;;;;;;5.7;15;;;;;;;11.7;90.7;98400;;;;
2022/10/02 19:30:43;;;;;;;5.7;15;;;;;;;11.6;89.6;98440;;;;
2022/10/02 19:41:43;;;;;;;5.8;11;;;;;;;11.4;89.7;98450;;;;
2022/10/02 19:52:45;;;;;;;5.8;11;;;;;;;11.2;89.6;98450;;;;
2022/10/02 20:03:43;;;;;;;5.8;11;;;;;;;11;89.1;98460;;;;
2022/10/02 20:13:43;;;;;;;4.2;7.9;;;;;;;10.8;88.7;98470;;;;
2022/10/02 20:23:44;;;;;;;4.2;7.9;;;;;;;10.6;89.7;98470;;;;
2022/10/02 20:34:43;;;;;;;4.2;7.9;;;;;;;10.5;90.3;98480;;;;
2022/10/02 20:44:43;;;;;;;3.5;7.9;;;;;;;10.5;91;98480;;;;
2022/10/02 20:55:43;;;;;;;3.5;7.9;;;;;;;10.5;91.3;98500;;;;
2022/10/02 21:05:44;;;;;;;2.1;4.4;;;;;;;10.5;91.4;98490;;;;
2022/10/02 21:15:43;;;;;;;2.1;4.4;;;;;;;10.5;91.4;98490;;;;
2022/10/02 21:26:44;;;;;;;2.1;4.4;;;;;;;10.3;91.7;98490;;;;
2022/10/02 21:36:44;;;;;;;3.2;6.8;;;;;;;10.3;92.2;98490;;;;
2022/10/02 21:47:44;;;;;;;3.2;6.8;;;;;;;10.2;91.9;98500;;;;
2022/10/02 21:58:43;;;;;;;3.2;6.8;;;;;;;10;91.8;98490;;;;
2022/10/02 22:09:43;;;;;;;4.3;8.6;;;;;;;10;92.1;98490;;;;
2022/10/02 22:19:43;;;;;;;4.3;8.6;;;;;;;10.1;92.2;98500;;;;
2022/10/02 22:30:43;;;;;;;4.3;8.6;;;;;;;10.2;92.3;98500;;;;
2022/10/02 22:40:43;;;;;;;5.9;10.4;;;;;;;10.3;91.8;98510;;;;
2022/10/02 22:51:43;;;;;;;5.9;10.4;;;;;;;10.5;91.8;98510;;;;
2022/10/02 23:02:43;;;;;;;5.9;10.4;;;;;;;10.5;91.7;98520;;;;
2022/10/02 23:12:43;;;;;;;4;7.5;;;;;;;10.6;91.7;98520;;;;
2022/10/02 23:22:44;;;;;;;4;7.5;;;;;;;10.6;91.7;98540;;;;
2022/10/02 23:33:44;;;;;;;4;7.5;;;;;;;10.7;91.2;98540;;;;
2022/10/02 23:44:43;;;;;;;4.7;9.3;;;;;;;10.7;90.9;98540;;;;
2022/10/02 23:55:44;;;;;;;4.7;9.3;;;;;;;10.6;91;98540;;;;
